Time;durP1;ratioP1;P1;durP2;ratioP2;P2;SDS_P1;SDS_P2;PMS_P1;PMS_P2;Temp;Humidity;BMP_temperature;BMP_pressure;BME280_temperature;BME280_humidity;BME280_pressure;Samples;Min_cycle;Max_cycle;Signal;HPM_P1;HPM_P2
2022/12/30 00:01:21;;;;;;;0.80;0.60;;;8.30;99.90;;;11.50;53.99;97448.25;5043647;28;20034;-57
2022/12/30 00:03:50;;;;;;;1.20;0.60;;;8.30;99.90;;;11.45;53.74;97451.41;5058962;28;20049;-57
2022/12/30 00:06:22;;;;;;;2.43;0.70;;;8.30;99.90;;;11.45;53.93;97447.91;5043487;28;20051;-57
2022/12/30 00:08:54;;;;;;;4.93;1.17;;;8.20;99.90;;;11.45;53.86;97450.59;5043636;28;20037;-54
2022/12/30 00:11:27;;;;;;;2.60;0.77;;;8.20;99.90;;;11.48;53.68;97453.75;5042536;28;20045;-57
2022/12/30 00:34:33;;;;;;;5.63;1.00;;;8.20;99.90;;;11.35;54.08;97464.94;5028727;28;20053;-57
2022/12/30 00:37:01;;;;;;;2.93;1.00;;;8.20;99.90;;;11.31;53.82;97460.13;5042047;28;20282;-57
2022/12/30 00:39:29;;;;;;;2.40;0.83;;;8.20;99.90;;;11.31;54.15;97458.28;5042082;28;20049;-56
2022/12/30 00:44:43;;;;;;;1.90;0.80;;;8.20;99.90;;;11.21;54.40;97474.44;5036997;28;20049;-57
2022/12/30 00:47:12;;;;;;;3.47;0.90;;;8.10;99.90;;;11.23;53.88;97469.78;5042829;28;20037;-55
2022/12/30 00:57:59;;;;;;;3.40;1.27;;;8.10;99.90;;;11.27;53.74;97488.13;5042445;28;20252;-57
2022/12/30 01:00:26;;;;;;;2.73;0.97;;;8.10;99.90;;;11.27;53.85;97488.94;5033357;28;20037;-56
2022/12/30 01:02:54;;;;;;;6.43;1.57;;;8.10;99.90;;;11.28;53.89;97498.56;5041024;28;20041;-56
2022/12/30 01:05:22;;;;;;;8.93;1.90;;;8.10;99.90;;;11.27;53.87;97507.59;5042391;28;20574;-57
2022/12/30 01:07:51;;;;;;;2.83;1.20;;;8.10;99.90;;;11.27;53.77;97510.25;5040913;28;20045;-56
2022/12/30 01:10:19;;;;;;;1.43;0.67;;;8.10;99.90;;;11.26;53.96;97507.75;5041520;28;20046;-56
2022/12/30 01:12:46;;;;;;;3.47;1.00;;;8.00;99.90;;;11.26;53.88;97515.75;5040929;28;20261;-58
2022/12/30 01:15:14;;;;;;;3.80;1.00;;;8.10;99.90;;;11.23;53.72;97511.59;5024484;28;20056;-57
2022/12/30 01:17:42;;;;;;;1.93;1.03;;;8.00;99.90;;;11.20;53.96;97512.75;5041307;28;20051;-57
2022/12/30 01:20:10;;;;;;;2.50;1.13;;;8.00;99.90;;;11.21;53.92;97517.09;5041212;28;20052;-57
2022/12/30 01:22:38;;;;;;;1.10;0.90;;;8.00;99.90;;;11.22;54.15;97523.25;5042288;28;20068;-55
2022/12/30 01:25:06;;;;;;;6.17;1.27;;;8.00;99.90;;;11.21;53.96;97526.94;5041908;28;20049;-55
2022/12/30 01:27:34;;;;;;;2.43;0.90;;;8.00;99.90;;;11.20;54.05;97525.25;5042091;28;20336;-57
2022/12/30 01:30:02;;;;;;;3.80;1.77;;;8.00;99.90;;;11.17;53.87;97528.25;5042228;28;20344;-59
2022/12/30 01:32:30;;;;;;;2.60;1.17;;;7.90;99.90;;;11.12;53.82;97528.75;5033072;28;20041;-58
2022/12/30 01:34:58;;;;;;;2.20;1.27;;;7.90;99.90;;;11.10;54.18;97530.75;5040892;28;20057;-57
2022/12/30 01:37:26;;;;;;;3.33;1.37;;;7.80;99.90;;;11.08;53.97;97539.91;5042128;28;20047;-57
2022/12/30 01:39:54;;;;;;;3.10;1.10;;;7.80;99.90;;;11.05;53.92;97541.09;5024799;28;20045;-58
2022/12/30 01:42:29;;;;;;;2.30;1.40;;;7.70;99.90;;;11.03;54.01;97551.06;5041628;28;20355;-58
2022/12/30 01:45:23;;;;;;;1.90;1.10;;;7.70;99.90;;;10.96;53.98;97556.22;5040689;28;20067;-56
2022/12/30 01:48:10;;;;;;;;;;;7.60;99.90;;;10.93;54.35;97553.88;5036527;28;20045;-56
2022/12/30 01:50:52;;;;;;;2.73;0.90;;;7.50;99.90;;;10.85;53.94;97545.91;5035167;28;20207;-56
2022/12/30 01:53:31;;;;;;;1.13;0.77;;;7.40;99.90;;;10.75;54.51;97553.22;5040003;28;20053;-58
2022/12/30 01:56:06;;;;;;;1.90;0.80;;;7.40;99.90;;;10.70;54.63;97540.41;5040952;28;20243;-55
2022/12/30 01:58:49;;;;;;;2.97;0.90;;;7.40;99.90;;;10.67;54.54;97546.03;5034373;28;20048;-56
2022/12/30 02:01:18;;;;;;;2.20;0.93;;;7.30;99.90;;;10.61;54.65;97536.88;5040636;28;20393;-57
2022/12/30 02:04:00;;;;;;;3.63;0.80;;;7.30;99.90;;;10.56;54.78;97533.88;5040628;28;20048;-58
2022/12/30 02:07:03;;;;;;;1.23;1.00;;;7.20;99.90;;;10.52;55.20;97529.03;5040690;28;20221;-57
2022/12/30 02:09:33;;;;;;;1.50;0.60;;;7.20;99.90;;;10.48;55.09;97522.38;5034331;28;20056;-58
2022/12/30 02:12:04;;;;;;;3.87;0.87;;;7.10;99.90;;;10.42;55.16;97531.84;5044746;28;20045;-57
2022/12/30 02:14:36;;;;;;;1.00;0.80;;;7.10;99.90;;;10.35;55.41;97542.34;5036841;28;20365;-56
2022/12/30 02:17:42;;;;;;;1.70;0.80;;;7.10;99.90;;;10.29;55.68;97542.09;5044674;28;20045;-57
2022/12/30 02:20:20;;;;;;;1.80;0.83;;;7.00;99.90;;;10.26;55.72;97543.25;5043262;28;20063;-57
2022/12/30 02:23:16;;;;;;;1.17;0.87;;;6.90;99.90;;;10.22;55.86;97542.75;5044326;28;20045;-57
2022/12/30 02:26:20;;;;;;;0.70;0.60;;;6.90;99.90;;;10.17;55.75;97537.06;5039388;28;20247;-57
2022/12/30 02:29:04;;;;;;;1.65;1.05;;;6.90;99.90;;;10.19;55.77;97542.22;5040113;28;20068;-57
2022/12/30 02:32:09;;;;;;;1.83;0.98;;;6.90;99.90;;;10.19;56.01;97553.69;5037580;28;20049;-57
2022/12/30 02:35:08;;;;;;;2.80;0.73;;;7.00;99.90;;;10.22;55.91;97560.53;5036587;28;20053;-57
2022/12/30 02:38:03;;;;;;;1.97;0.80;;;7.10;99.90;;;10.24;55.98;97559.38;5039688;28;20064;-58
2022/12/30 02:46:45;;;;;;;1.53;0.90;;;7.10;99.90;;;10.25;55.92;97569.03;5036518;28;20051;-56
2022/12/30 02:49:16;;;;;;;1.53;1.00;;;7.10;99.90;;;10.25;56.03;97578.84;5044105;28;20256;-57
2022/12/30 02:54:31;;;;;;;2.40;0.87;;;7.00;99.90;;;10.23;55.72;97592.28;5043504;28;20044;-56
2022/12/30 02:56:59;;;;;;;1.17;0.60;;;7.00;99.90;;;10.22;55.57;97597.78;5044211;28;20225;-56
2022/12/30 03:05:53;;;;;;;2.40;0.80;;;6.90;99.90;;;10.12;55.73;97608.56;5035536;28;20050;-56
2022/12/30 03:08:49;;;;;;;0.97;0.77;;;6.80;99.90;;;10.03;55.41;97590.88;5043667;28;20055;-58
2022/12/30 03:11:18;;;;;;;1.00;0.80;;;6.70;99.90;;;9.96;55.83;97574.72;5042956;28;20046;-57
2022/12/30 03:14:06;;;;;;;1.60;0.77;;;6.60;99.90;;;9.88;55.51;97571.19;5043374;28;20048;-57
2022/12/30 03:16:42;;;;;;;1.60;0.90;;;6.50;99.90;;;9.84;55.99;97573.34;5044229;28;20053;-53
2022/12/30 03:19:25;;;;;;;1.73;0.80;;;6.50;99.90;;;9.78;55.91;97582.78;5043474;28;20049;-56
2022/12/30 03:21:55;;;;;;;3.87;1.00;;;6.40;99.90;;;9.70;56.08;97577.41;5044992;28;20053;-57
2022/12/30 03:27:21;;;;;;;1.83;0.80;;;6.40;99.90;;;9.67;56.37;97583.03;5043490;28;20045;-56
2022/12/30 03:30:00;;;;;;;1.80;1.00;;;6.30;99.90;;;9.65;56.19;97577.03;5043794;28;20046;-56
2022/12/30 03:32:28;;;;;;;0.90;0.80;;;6.30;99.90;;;9.63;56.47;97579.03;5043044;28;20041;-58
2022/12/30 03:34:56;;;;;;;1.90;1.23;;;6.30;99.90;;;9.62;56.55;97580.84;5042854;28;20053;-57
2022/12/30 03:37:30;;;;;;;2.00;1.10;;;6.30;99.90;;;9.61;56.50;97578.34;5043233;28;20055;-58
2022/12/30 03:40:25;;;;;;;2.25;1.17;;;6.30;99.90;;;9.57;56.44;97582.31;5043329;28;20045;-58
2022/12/30 03:42:54;;;;;;;1.53;0.97;;;6.30;99.90;;;9.52;56.87;97580.13;5037291;28;20239;-58
2022/12/30 03:45:22;;;;;;;1.23;1.00;;;6.20;99.90;;;9.44;56.91;97578.25;5042514;28;20351;-57
2022/12/30 03:47:50;;;;;;;1.47;1.00;;;6.10;99.90;;;9.40;56.79;97568.94;5042719;28;20045;-58
2022/12/30 03:50:18;;;;;;;1.17;1.00;;;6.00;99.90;;;9.41;56.83;97569.75;5044003;28;20045;-57
2022/12/30 03:52:45;;;;;;;2.97;1.17;;;6.10;99.90;;;9.36;57.06;97569.38;5042453;28;20056;-57
2022/12/30 03:55:13;;;;;;;1.53;1.10;;;6.00;99.90;;;9.32;57.11;97563.53;5043948;28;20045;-57
2022/12/30 03:57:41;;;;;;;1.70;1.10;;;6.00;99.90;;;9.33;57.02;97573.19;5042645;28;20041;-58
2022/12/30 04:00:10;;;;;;;3.00;1.30;;;6.00;99.90;;;9.35;57.19;97573.88;5043944;28;20244;-56
2022/12/30 04:02:40;;;;;;;2.00;1.30;;;6.10;99.90;;;9.36;57.23;97559.56;5036638;28;20045;-57
2022/12/30 04:05:09;;;;;;;5.93;1.80;;;6.10;99.90;;;9.38;57.04;97557.63;5043649;28;20071;-57
2022/12/30 04:07:37;;;;;;;2.20;1.47;;;6.10;99.90;;;9.39;57.16;97553.97;5018226;28;20037;-57
2022/12/30 04:10:05;;;;;;;2.43;1.53;;;6.10;99.90;;;9.44;57.04;97556.16;5043294;28;20385;-57
2022/12/30 04:12:33;;;;;;;3.83;1.50;;;6.10;99.90;;;9.40;57.36;97550.34;5042404;28;20358;-57
2022/12/30 04:15:01;;;;;;;2.73;1.50;;;6.10;99.90;;;9.41;57.24;97559.13;5042269;28;20049;-57
2022/12/30 04:17:29;;;;;;;1.80;1.00;;;6.10;99.90;;;9.36;57.37;97556.91;5043444;28;20045;-56
2022/12/30 04:19:56;;;;;;;1.33;1.10;;;6.10;99.90;;;9.35;57.38;97551.78;5042188;28;20049;-57
2022/12/30 04:22:24;;;;;;;1.10;0.93;;;6.10;99.90;;;9.33;57.67;97562.56;5042052;28;20045;-57
2022/12/30 04:24:52;;;;;;;3.03;1.10;;;6.00;99.90;;;9.34;57.57;97566.03;5042123;28;20045;-56
2022/12/30 04:27:24;;;;;;;1.20;1.00;;;6.10;99.90;;;9.39;57.35;97571.75;5043252;28;20044;-57
2022/12/30 04:29:52;;;;;;;1.40;1.20;;;6.10;99.90;;;9.39;57.72;97569.91;5043389;28;20040;-56
2022/12/30 04:32:20;;;;;;;1.47;1.30;;;6.10;99.90;;;9.38;57.58;97556.78;5042132;28;20049;-56
2022/12/30 04:34:47;;;;;;;1.73;1.27;;;6.20;99.90;;;9.39;57.52;97548.66;5041376;28;20243;-58
2022/12/30 04:37:15;;;;;;;3.23;1.17;;;6.20;99.90;;;9.39;57.72;97545.16;5041854;28;20045;-56
2022/12/30 04:39:43;;;;;;;1.10;1.00;;;6.20;99.90;;;9.40;57.43;97537.06;5042116;28;20041;-56
2022/12/30 04:42:11;;;;;;;0.97;0.73;;;6.20;99.90;;;9.41;57.24;97545.84;5043623;28;20059;-57
2022/12/30 04:44:39;;;;;;;3.40;1.40;;;6.20;99.90;;;9.40;57.40;97542.38;5033568;28;20053;-56
2022/12/30 04:47:07;;;;;;;1.90;0.90;;;6.20;99.90;;;9.39;57.24;97542.50;5043630;28;20049;-56
2022/12/30 04:49:34;;;;;;;1.13;0.80;;;6.20;99.90;;;9.40;57.20;97549.47;5042753;28;20068;-56
2022/12/30 04:52:02;;;;;;;1.00;0.90;;;6.20;99.90;;;9.39;57.21;97542.50;5042910;28;20045;-57
2022/12/30 04:54:30;;;;;;;2.50;0.90;;;6.20;99.90;;;9.37;57.30;97545.31;5042492;28;20041;-54
2022/12/30 04:56:58;;;;;;;1.27;0.87;;;6.20;99.90;;;9.40;57.33;97550.34;5041767;28;20056;-56
2022/12/30 04:59:26;;;;;;;1.03;0.80;;;6.20;99.90;;;9.37;57.20;97547.97;5042513;28;20053;-56
2022/12/30 05:01:54;;;;;;;1.50;0.80;;;6.20;99.90;;;9.35;57.41;97552.63;5042555;28;20041;-55
2022/12/30 05:04:22;;;;;;;1.77;0.77;;;6.20;99.90;;;9.35;57.25;97557.94;5042439;28;20052;-56
2022/12/30 05:06:50;;;;;;;1.57;1.47;;;6.20;99.90;;;9.36;57.18;97556.91;5042531;28;20059;-56
2022/12/30 05:09:17;;;;;;;0.70;0.70;;;6.10;99.90;;;9.34;57.13;97558.06;5039818;28;20378;-57
2022/12/30 05:11:45;;;;;;;1.77;1.00;;;6.10;99.90;;;9.36;57.22;97566.72;5042380;28;20044;-56
2022/12/30 05:14:13;;;;;;;1.00;0.80;;;6.10;99.90;;;9.34;57.30;97558.06;5042227;28;20041;-52
2022/12/30 05:16:41;;;;;;;1.50;1.00;;;6.10;99.90;;;9.36;57.03;97556.09;5033416;28;20340;-56
2022/12/30 05:19:09;;;;;;;1.53;0.90;;;6.20;99.90;;;9.38;56.95;97551.47;5042400;28;20252;-52
2022/12/30 05:21:37;;;;;;;1.87;1.10;;;6.20;99.90;;;9.40;57.12;97549.47;5040620;28;20045;-56
2022/12/30 05:26:52;;;;;;;2.73;1.07;;;6.20;99.90;;;9.39;56.92;97561.13;5035628;28;20056;-54
2022/12/30 05:29:20;;;;;;;1.07;0.97;;;6.20;99.90;;;9.40;56.99;97566.28;5041991;28;20048;-56
2022/12/30 05:31:47;;;;;;;1.57;0.90;;;6.20;99.90;;;9.40;56.97;97571.59;5041176;28;20047;-57
2022/12/30 05:34:15;;;;;;;0.73;0.73;;;6.20;99.90;;;9.37;57.04;97577.19;5042309;28;20053;-56
2022/12/30 05:36:43;;;;;;;1.70;0.70;;;6.20;99.90;;;9.36;56.99;97572.88;5042075;28;20051;-57
2022/12/30 05:39:12;;;;;;;1.80;0.97;;;6.20;99.90;;;9.37;57.00;97573.72;5041908;28;20059;-55
2022/12/30 05:41:40;;;;;;;0.67;0.63;;;6.20;99.90;;;9.34;56.83;97569.53;5041906;28;20041;-56
2022/12/30 05:44:08;;;;;;;1.43;0.87;;;6.10;99.90;;;9.29;56.81;97578.97;5041836;28;20051;-55
2022/12/30 05:46:36;;;;;;;3.13;0.87;;;6.10;99.90;;;9.28;56.93;97580.78;5042209;28;20051;-55
2022/12/30 05:49:04;;;;;;;1.20;0.70;;;6.00;99.90;;;9.29;56.76;97578.97;5042038;28;20052;-54
2022/12/30 05:51:31;;;;;;;1.27;0.63;;;6.00;99.90;;;9.30;56.92;97576.16;5041721;28;20041;-57
2022/12/30 05:53:59;;;;;;;2.27;1.00;;;6.00;99.90;;;9.29;56.72;97571.84;5039903;28;20054;-57
2022/12/30 05:56:27;;;;;;;1.10;0.80;;;6.00;99.90;;;9.30;56.54;97564.69;5041957;28;20041;-57
2022/12/30 05:58:55;;;;;;;3.97;0.77;;;6.00;99.90;;;9.27;56.45;97555.22;5041965;28;20046;-56
2022/12/30 06:01:23;;;;;;;2.03;0.80;;;6.00;99.90;;;9.26;56.47;97556.19;5041862;28;20049;-54
2022/12/30 06:03:55;;;;;;;0.87;0.63;;;5.90;99.90;;;9.19;56.76;97555.13;5041653;28;20053;-56
2022/12/30 06:06:24;;;;;;;2.03;1.07;;;5.90;99.90;;;9.20;56.84;97552.34;5041731;28;20374;-57
2022/12/30 06:08:52;;;;;;;2.87;0.77;;;5.90;99.90;;;9.23;56.52;97559.19;5041485;28;20063;-57
2022/12/30 06:11:19;;;;;;;3.07;1.00;;;6.00;99.90;;;9.22;56.79;97562.81;5041679;28;20051;-56
2022/12/30 06:13:47;;;;;;;1.23;0.80;;;5.90;99.90;;;9.21;56.75;97577.91;5040476;28;20225;-57
2022/12/30 06:16:15;;;;;;;0.83;0.80;;;5.90;99.90;;;9.21;56.36;97572.59;5041851;28;20363;-56
2022/12/30 06:18:43;;;;;;;1.93;1.00;;;5.90;99.90;;;9.20;56.54;97576.25;5041647;28;20049;-55
2022/12/30 06:21:11;;;;;;;2.37;1.20;;;5.90;99.90;;;9.16;56.63;97566.09;5040697;28;20065;-56
2022/12/30 06:23:38;;;;;;;1.00;0.80;;;5.90;99.90;;;9.15;56.72;97559.09;5041319;28;20356;-56
2022/12/30 06:26:06;;;;;;;1.60;0.80;;;5.90;99.90;;;9.13;56.53;97561.94;5041692;28;20045;-53
2022/12/30 06:28:34;;;;;;;4.27;1.70;;;5.80;99.90;;;9.11;56.53;97563.03;5040278;28;20037;-56
2022/12/30 06:31:02;;;;;;;2.20;1.37;;;5.80;99.90;;;9.09;56.77;97567.69;5039801;28;20352;-56
2022/12/30 06:33:30;;;;;;;2.27;1.33;;;5.80;99.90;;;9.08;56.48;97574.81;5039706;28;20049;-57
2022/12/30 06:35:58;;;;;;;6.97;2.70;;;5.70;99.90;;;9.07;56.55;97576.66;5041249;28;20247;-57
2022/12/30 06:38:25;;;;;;;3.97;1.60;;;5.70;99.90;;;9.08;56.55;97569.50;5040294;28;20050;-56
2022/12/30 06:40:53;;;;;;;2.80;1.70;;;5.70;99.90;;;9.06;56.61;97566.19;5041308;28;20037;-55
2022/12/30 06:43:21;;;;;;;1.80;1.37;;;5.70;99.90;;;9.05;56.43;97560.03;5040903;28;20042;-55
2022/12/30 06:45:49;;;;;;;1.77;1.10;;;5.70;99.90;;;9.04;56.57;97550.38;5041231;28;20051;-56
2022/12/30 06:48:17;;;;;;;1.67;1.20;;;5.70;99.90;;;9.04;56.37;97555.69;5041374;28;20050;-56
2022/12/30 06:50:44;;;;;;;1.17;1.00;;;5.70;99.90;;;9.03;56.69;97554.06;5041417;28;20046;-56
2022/12/30 06:53:12;;;;;;;1.70;1.20;;;5.70;99.90;;;9.04;56.80;97553.03;5040761;28;20362;-53
2022/12/30 06:55:40;;;;;;;1.57;1.00;;;5.70;99.90;;;9.02;56.55;97543.56;5041757;28;20390;-54
2022/12/30 06:58:08;;;;;;;1.23;0.80;;;5.70;99.90;;;9.01;56.75;97553.34;5045961;28;20232;-54
2022/12/30 07:00:36;;;;;;;1.57;1.10;;;5.70;99.90;;;9.00;56.49;97557.00;5043676;28;20045;-56
2022/12/30 07:03:04;;;;;;;2.70;2.07;;;5.70;99.90;;;9.01;56.56;97561.31;5044589;28;20049;-55
2022/12/30 07:05:31;;;;;;;3.70;2.30;;;5.70;99.90;;;9.01;56.42;97565.78;5044719;28;20045;-55
2022/12/30 07:07:59;;;;;;;3.13;2.30;;;5.70;99.90;;;9.01;56.51;97571.09;5044907;28;20049;-56
2022/12/30 07:10:27;;;;;;;3.13;1.67;;;5.70;99.90;;;9.02;56.39;97564.81;5044012;28;20041;-56
2022/12/30 07:12:55;;;;;;;2.03;1.20;;;5.70;99.90;;;9.01;56.38;97569.28;5044254;28;20037;-53
2022/12/30 07:15:24;;;;;;;2.10;1.13;;;5.70;99.90;;;8.99;56.56;97573.91;5043501;28;20343;-56
2022/12/30 07:17:53;;;;;;;3.13;1.03;;;5.70;99.90;;;9.00;56.56;97574.75;5044710;28;20243;-58
2022/12/30 07:20:20;;;;;;;1.40;1.00;;;5.70;99.90;;;9.01;56.69;97566.63;5043539;28;20050;-53
2022/12/30 07:22:48;;;;;;;2.97;1.53;;;5.70;99.90;;;9.01;56.50;97566.63;5036166;28;20128;-56
2022/12/30 07:25:16;;;;;;;3.20;1.60;;;5.70;99.90;;;9.01;56.50;97565.78;5044554;28;20310;-57
2022/12/30 07:27:44;;;;;;;4.17;2.17;;;5.80;99.90;;;9.01;56.38;97568.44;5044663;28;20041;-57
2022/12/30 07:30:12;;;;;;;2.60;2.10;;;5.70;99.90;;;9.02;56.36;97559.50;5044261;28;20049;-56
2022/12/30 07:32:40;;;;;;;2.40;1.60;;;5.70;99.90;;;8.98;56.47;97561.63;5044267;28;20045;-57
2022/12/30 07:35:08;;;;;;;2.07;1.17;;;5.70;99.90;;;9.00;56.33;97566.78;5044121;28;20037;-64
2022/12/30 07:37:36;;;;;;;1.93;1.40;;;5.70;99.90;;;9.00;56.37;97566.78;5043016;28;20373;-64
2022/12/30 07:40:05;;;;;;;1.40;1.10;;;5.70;99.90;;;8.99;56.23;97570.44;5044943;28;20219;-64
2022/12/30 07:42:33;;;;;;;2.13;1.40;;;5.70;99.90;;;9.00;56.39;97562.31;5040199;28;20059;-64
2022/12/30 07:45:01;;;;;;;3.67;2.20;;;5.70;99.90;;;9.00;56.28;97564.13;5037119;28;20259;-64
2022/12/30 07:47:33;;;;;;;4.60;2.60;;;5.70;99.90;;;9.02;56.35;97563.00;5043210;28;20059;-67
2022/12/30 07:50:02;;;;;;;7.40;4.30;;;5.70;99.90;;;8.98;56.65;97558.97;5042913;28;20057;-65
2022/12/30 07:52:30;;;;;;;6.27;3.13;;;5.70;99.90;;;8.95;56.37;97564.56;5044067;28;20049;-67
2022/12/30 07:54:58;;;;;;;8.07;4.87;;;5.70;99.90;;;8.92;56.42;97559.59;5042245;28;20052;-67
2022/12/30 07:57:28;;;;;;;8.27;4.90;;;5.60;99.90;;;8.91;56.18;97557.91;5043802;28;20052;-67
2022/12/30 07:59:56;;;;;;;7.30;4.97;;;5.50;99.90;;;8.91;56.24;97563.22;5043920;28;20233;-67
2022/12/30 08:02:24;;;;;;;6.23;4.03;;;5.50;99.90;;;8.86;56.34;97561.03;5043371;28;20057;-67
2022/12/30 08:04:52;;;;;;;11.37;5.40;;;5.50;99.90;;;8.86;56.41;97562.88;5035628;28;20045;-67
2022/12/30 08:07:20;;;;;;;6.43;2.27;;;5.60;99.90;;;8.86;56.20;97563.69;5042806;28;20049;-68
2022/12/30 08:09:48;;;;;;;2.27;1.77;;;5.50;99.90;;;8.86;56.42;97561.03;5039957;28;20048;-65
2022/12/30 08:12:16;;;;;;;2.80;1.47;;;5.50;99.90;;;8.85;56.27;97558.53;5043504;28;20052;-64
2022/12/30 08:14:44;;;;;;;3.33;2.07;;;5.50;99.90;;;8.84;56.31;97564.81;5041050;28;20048;-65
2022/12/30 08:17:11;;;;;;;4.87;1.73;;;5.50;99.90;;;8.84;56.55;97572.78;5043672;28;20053;-64
2022/12/30 08:19:39;;;;;;;1.90;1.30;;;5.50;99.90;;;8.86;56.27;97568.19;5043504;28;20376;-64
2022/12/30 08:22:07;;;;;;;1.97;1.30;;;5.50;99.90;;;8.89;56.64;97565.19;5043457;28;20053;-56
2022/12/30 08:24:35;;;;;;;6.60;3.87;;;5.50;99.90;;;8.91;56.29;97549.94;5043030;28;20053;-56
2022/12/30 08:27:03;;;;;;;4.57;2.57;;;5.60;99.90;;;8.91;56.39;97546.47;5043236;28;20049;-55
2022/12/30 08:29:30;;;;;;;7.20;4.63;;;5.60;99.90;;;8.94;56.38;97539.03;5043567;28;20041;-55
2022/12/30 08:31:58;;;;;;;2.03;1.60;;;5.60;99.90;;;8.97;56.41;97546.66;5043144;28;20366;-55
2022/12/30 08:34:27;;;;;;;7.67;4.40;;;5.70;99.90;;;8.98;56.71;97545.69;5041828;28;20243;-57
2022/12/30 08:36:54;;;;;;;9.33;4.57;;;5.80;99.90;;;9.02;56.64;97540.91;5043074;28;20045;-54
2022/12/30 08:39:22;;;;;;;3.57;2.57;;;5.80;99.90;;;9.06;56.98;97539.63;5042420;28;20271;-57
2022/12/30 08:41:50;;;;;;;4.33;1.60;;;5.80;99.90;;;9.07;56.79;97536.81;5041545;28;20052;-56
2022/12/30 08:44:24;;;;;;;2.90;1.90;;;5.80;99.90;;;9.13;56.79;97534.50;5042751;28;20046;-57
2022/12/30 08:46:53;;;;;;;2.07;1.63;;;5.90;99.90;;;9.13;56.65;97535.38;5035070;28;20049;-54
2022/12/30 08:49:22;;;;;;;4.50;2.17;;;5.90;99.90;;;9.14;56.58;97530.88;5042887;28;20043;-57
2022/12/30 08:51:50;;;;;;;3.23;1.60;;;5.90;99.90;;;9.17;56.67;97520.78;5041548;28;20041;-58
2022/12/30 08:54:18;;;;;;;3.37;1.50;;;5.90;99.90;;;9.21;56.74;97516.81;5042272;28;20275;-53
2022/12/30 08:56:48;;;;;;;2.10;1.40;;;6.00;99.90;;;9.25;56.69;97507.56;5042802;28;20056;-55
2022/12/30 08:59:16;;;;;;;1.50;1.27;;;6.00;99.90;;;9.28;56.76;97506.41;5041634;28;20045;-57
2022/12/30 09:01:44;;;;;;;2.53;1.47;;;6.00;99.90;;;9.30;56.79;97503.59;5042612;28;20051;-56
2022/12/30 09:04:13;;;;;;;2.20;1.13;;;6.10;99.90;;;9.34;56.53;97503.09;5042765;28;20051;-57
2022/12/30 09:06:42;;;;;;;1.53;1.30;;;6.10;99.90;;;9.39;56.84;97500.00;5042519;28;20049;-57
2022/12/30 09:09:13;;;;;;;1.50;1.23;;;6.20;99.90;;;9.43;56.66;97506.66;5042641;28;20366;-52
2022/12/30 09:11:43;;;;;;;1.70;1.10;;;6.20;99.90;;;9.44;56.77;97513.63;5042434;28;20041;-55
2022/12/30 09:14:13;;;;;;;3.70;1.83;;;6.20;99.90;;;9.45;56.76;97510.00;5042276;28;20051;-57
2022/12/30 09:16:42;;;;;;;5.37;2.10;;;6.30;99.90;;;9.47;56.86;97494.72;5040927;28;20049;-55
2022/12/30 09:19:10;;;;;;;2.97;2.10;;;6.30;99.90;;;9.51;56.99;97498.72;5041223;28;20049;-55
2022/12/30 09:21:46;;;;;;;2.03;1.40;;;6.40;99.90;;;9.57;57.03;97494.59;5041555;28;20048;-57
2022/12/30 09:24:14;;;;;;;2.13;1.23;;;6.40;99.90;;;9.59;57.06;97501.41;5041017;28;20050;-55
2022/12/30 09:26:42;;;;;;;1.63;1.33;;;6.50;99.90;;;9.62;57.23;97511.75;5042681;28;20049;-57
2022/12/30 09:29:11;;;;;;;3.37;2.07;;;6.60;99.90;;;9.70;57.00;97500.31;5041285;28;20047;-56
2022/12/30 09:31:39;;;;;;;2.27;1.83;;;6.70;99.90;;;9.69;57.28;97495.97;5041961;28;20052;-55
2022/12/30 09:34:07;;;;;;;2.27;1.40;;;6.70;99.90;;;9.77;56.91;97488.06;5042000;28;20041;-56
2022/12/30 09:36:35;;;;;;;1.47;1.23;;;6.80;99.90;;;9.77;57.22;97484.56;5041994;28;20228;-57
2022/12/30 09:39:03;;;;;;;1.60;1.17;;;6.90;99.90;;;9.79;57.08;97474.59;5041136;28;20045;-57
2022/12/30 09:44:58;;;;;;;2.10;1.40;;;7.00;99.90;;;9.86;57.14;97457.84;5041337;28;20385;-55
2022/12/30 09:47:38;;;;;;;2.30;1.33;;;7.10;99.90;;;9.85;57.38;97466.00;5041231;28;20045;-57
2022/12/30 09:50:42;;;;;;;1.90;1.20;;;7.10;99.90;;;9.90;57.22;97455.69;5035297;28;20048;-57
2022/12/30 09:53:48;;;;;;;2.33;1.20;;;7.10;99.90;;;9.97;56.87;97442.59;5035279;28;20050;-57
2022/12/30 09:56:31;;;;;;;2.13;1.20;;;7.20;99.90;;;10.02;57.05;97448.25;5035765;28;20243;-57
2022/12/30 09:59:09;;;;;;;1.63;1.20;;;7.20;99.90;;;10.05;56.67;97435.47;5034491;28;20057;-56
2022/12/30 10:01:43;;;;;;;1.67;0.93;;;7.30;99.90;;;10.10;56.82;97435.00;5040875;28;20045;-56
2022/12/30 10:04:17;;;;;;;2.03;1.10;;;7.30;99.90;;;10.15;56.75;97424.66;5040148;28;20054;-57
2022/12/30 10:07:32;;;;;;;2.73;1.00;;;7.30;99.90;;;10.16;56.85;97409.56;5040675;28;20049;-56
2022/12/30 10:10:06;;;;;;;1.73;1.20;;;7.40;99.90;;;10.18;56.31;97408.41;5034217;28;20067;-58
2022/12/30 10:12:39;;;;;;;1.92;1.08;;;7.40;99.90;;;10.23;56.36;97399.91;5041844;28;20056;-56
2022/12/30 10:15:33;;;;;;;1.93;1.10;;;7.50;99.90;;;10.27;56.50;97401.25;5040601;28;20045;-53
2022/12/30 10:18:41;;;;;;;1.88;1.35;;;7.50;99.90;;;10.33;56.43;97389.13;5034181;28;20056;-55
2022/12/30 10:21:54;;;;;;;1.63;1.20;;;7.60;99.90;;;10.34;56.52;97390.81;5034077;28;20052;-55
2022/12/30 10:24:57;;;;;;;2.10;0.93;;;7.60;99.90;;;10.38;56.38;97389.47;5036984;28;20057;-58
2022/12/30 10:27:49;;;;;;;1.63;1.10;;;7.60;99.90;;;10.48;56.36;97378.66;5036024;28;20052;-58
2022/12/30 10:30:21;;;;;;;3.57;1.10;;;7.60;99.90;;;10.52;55.99;97375.50;5036810;28;20037;-54
2022/12/30 10:33:02;;;;;;;1.70;1.10;;;7.70;99.90;;;10.59;55.68;97379.16;5045039;28;20053;-55
2022/12/30 10:35:32;;;;;;;1.43;0.90;;;7.70;99.90;;;10.63;55.54;97372.50;5044622;28;20120;-54
2022/12/30 10:38:12;;;;;;;2.03;1.30;;;7.80;99.90;;;10.64;55.73;97368.84;5037594;28;20347;-57
2022/12/30 10:41:24;;;;;;;2.77;1.33;;;7.80;99.90;;;10.62;55.78;97359.34;5045364;28;20046;-57
2022/12/30 10:44:36;;;;;;;0.93;0.77;;;7.80;99.90;;;10.65;55.38;97351.03;5036790;28;20045;-55
2022/12/30 10:47:40;;;;;;;0.97;0.80;;;7.80;99.90;;;10.65;55.26;97351.03;5036952;28;20492;-55
2022/12/30 10:50:43;;;;;;;3.70;1.27;;;7.80;99.90;;;10.69;55.80;97343.53;5037322;28;20049;-57
2022/12/30 10:53:20;;;;;;;1.63;1.10;;;7.90;99.90;;;10.76;55.13;97339.19;5037223;28;20049;-56
2022/12/30 10:56:05;;;;;;;2.47;1.40;;;7.90;99.90;;;10.78;55.22;97331.88;5044088;28;20045;-55
2022/12/30 10:58:46;;;;;;;1.00;0.90;;;8.00;99.90;;;10.83;55.19;97334.84;5045156;28;20045;-56
2022/12/30 11:01:34;;;;;;;2.03;0.93;;;8.00;99.90;;;10.83;55.24;97338.34;5043781;28;20055;-56
2022/12/30 11:04:03;;;;;;;2.70;1.10;;;8.00;99.90;;;10.88;55.06;97340.50;5036481;28;20056;-56
2022/12/30 11:06:37;;;;;;;2.60;1.20;;;8.00;99.90;;;10.91;54.90;97342.81;5043606;28;20063;-57
2022/12/30 11:09:22;;;;;;;4.25;0.98;;;8.10;99.90;;;10.92;54.75;97341.81;5036037;28;20053;-56
2022/12/30 11:15:24;;;;;;;3.40;1.57;;;8.10;99.90;;;11.01;54.85;97351.47;5039030;28;20049;-56
2022/12/30 11:17:57;;;;;;;1.58;1.05;;;8.20;99.90;;;11.04;54.35;97359.09;5043828;28;20046;-56
2022/12/30 11:20:38;;;;;;;2.83;1.20;;;8.20;99.90;;;11.09;54.30;97341.75;5043610;28;20053;-53
2022/12/30 11:23:40;;;;;;;1.00;0.90;;;8.20;99.90;;;11.12;54.59;97328.09;5036572;28;20057;-53
2022/12/30 11:26:20;;;;;;;1.00;0.90;;;8.20;99.90;;;11.20;54.26;97314.75;5037191;28;20045;-55
2022/12/30 11:28:57;;;;;;;2.67;1.30;;;8.30;99.90;;;11.22;54.55;97316.25;5043492;28;20055;-56
2022/12/30 11:31:41;;;;;;;1.47;1.03;;;8.40;99.90;;;11.24;54.26;97305.41;5043323;28;20033;-53
2022/12/30 11:34:32;;;;;;;2.27;1.20;;;8.40;99.90;;;11.28;54.43;97303.22;5036153;28;20067;-55
2022/12/30 11:37:30;;;;;;;1.73;1.07;;;8.40;99.90;;;11.30;54.36;97295.88;5045025;28;20055;-54
2022/12/30 11:40:36;;;;;;;1.50;1.20;;;8.50;99.90;;;11.35;54.44;97293.53;5042876;28;20056;-54
2022/12/30 11:43:17;;;;;;;3.03;1.17;;;8.50;99.90;;;11.43;54.02;97296.97;5034764;28;20381;-57
2022/12/30 11:46:08;;;;;;;1.73;1.27;;;8.60;99.90;;;11.45;54.56;97282.66;5044691;28;20045;-56
2022/12/30 11:49:00;;;;;;;1.53;0.93;;;8.70;99.90;;;11.47;53.69;97278.78;5043210;28;20045;-56
2022/12/30 11:51:33;;;;;;;0.83;0.70;;;8.70;99.90;;;11.50;53.57;97272.31;5039340;28;20168;-56
2022/12/30 11:54:16;;;;;;;1.87;1.07;;;8.70;99.90;;;11.55;53.50;97277.91;5026469;28;20056;-55
2022/12/30 11:56:56;;;;;;;1.50;0.93;;;8.80;99.90;;;11.58;53.60;97259.72;5044096;28;20267;-55